This is the latest recevied weather packets stored in our database for station/object WMKP. If no packets are shown the sender has not sent any weather packets the latest 10 day(s).
| Time | Temp. | Humidity | Pressure | Rain* | Wind** | Luminosity | Snow |
|---|---|---|---|---|---|---|---|
| 1777635597 | 25.56° C | 88% | 1007 hPa | - | - | - | - |
| 1777634990 | 27.78° C | 78% | 1007 hPa | - | - | - | - |
| 1777633815 | 30° C | 70% | 1007 hPa | - | - | - | - |
| 1777631998 | 30° C | 70% | 1007 hPa | - | - | - | - |
| 1777630223 | 30° C | 74% | 1006 hPa | - | - | - | - |
| 1777628400 | 30.56° C | 70% | 1006 hPa | - | - | - | - |
| 1777626624 | 30.56° C | 66% | 1006 hPa | - | - | - | - |
| 1777625393 | 30.56° C | 66% | 1007 hPa | - | - | - | - |
| 1777624800 | 30.56° C | 70% | 1006 hPa | - | - | - | - |
| 1777623017 | 30.56° C | 70% | 1006 hPa | - | - | - | - |
| 1777621197 | 30.56° C | 70% | 1006 hPa | - | - | - | - |
| 1777619414 | 30.56° C | 70% | 1007 hPa | - | - | - | - |
| 1777617598 | 30.56° C | 70% | 1008 hPa | - | - | - | - |
| 1777615821 | 30.56° C | 70% | 1009 hPa | - | - | - | - |
| 1777613997 | 30.56° C | 70% | 1009 hPa | - | - | - | - |
| 1777612224 | 30.56° C | 70% | 1010 hPa | - | - | - | - |
| 1777610400 | 30° C | 70% | 1010 hPa | - | - | - | - |
| 1777608614 | 30° C | 70% | 1011 hPa | - | - | - | - |
| 1777607989 | 30.56° C | 70% | 1011 hPa | - | - | - | - |
| 1777605014 | 30° C | 74% | 1011 hPa | - | - | - | - |
| 1777603196 | 30° C | 70% | 1011 hPa | - | - | - | - |
| 1777601414 | 30° C | 74% | 1010 hPa | - | - | - | - |
| 1777599596 | 28.89° C | 79% | 1010 hPa | - | - | - | - |
| 1777597823 | 27.78° C | 83% | 1010 hPa | - | - | - | - |
| 1777595999 | 26.67° C | 88% | 1009 hPa | - | - | - | - |
* Rain since midnight (hover to see other rain measurements)
** Current wind speed in m/s (hover to see current wind gust speed)